sensor_id;sensor_type;location;lat;lon;timestamp;P1;durP1;ratioP1;P2;durP2;ratioP2
41677;SDS011;27364;49.026;8.712;2022-08-14T00:00:48;3.45;;;2.40;;
41677;SDS011;27364;49.026;8.712;2022-08-14T00:03:25;3.08;;;2.17;;
41677;SDS011;27364;49.026;8.712;2022-08-14T00:05:53;3.97;;;2.20;;
41677;SDS011;27364;49.026;8.712;2022-08-14T00:08:20;5.47;;;2.30;;
41677;SDS011;27364;49.026;8.712;2022-08-14T00:10:46;3.20;;;2.25;;
41677;SDS011;27364;49.026;8.712;2022-08-14T00:13:12;3.45;;;2.20;;
41677;SDS011;27364;49.026;8.712;2022-08-14T00:15:40;3.88;;;2.35;;
41677;SDS011;27364;49.026;8.712;2022-08-14T00:18:08;4.07;;;2.35;;
41677;SDS011;27364;49.026;8.712;2022-08-14T00:20:36;3.58;;;2.10;;
41677;SDS011;27364;49.026;8.712;2022-08-14T00:23:04;3.42;;;2.10;;
41677;SDS011;27364;49.026;8.712;2022-08-14T00:25:31;4.63;;;2.17;;
41677;SDS011;27364;49.026;8.712;2022-08-14T00:27:56;2.58;;;1.90;;
41677;SDS011;27364;49.026;8.712;2022-08-14T00:30:22;5.82;;;2.50;;
41677;SDS011;27364;49.026;8.712;2022-08-14T00:32:48;3.17;;;2.30;;
41677;SDS011;27364;49.026;8.712;2022-08-14T00:35:13;4.30;;;2.70;;
41677;SDS011;27364;49.026;8.712;2022-08-14T00:37:41;2.95;;;2.28;;
41677;SDS011;27364;49.026;8.712;2022-08-14T00:40:09;4.00;;;2.65;;
41677;SDS011;27364;49.026;8.712;2022-08-14T00:42:38;4.70;;;2.50;;
41677;SDS011;27364;49.026;8.712;2022-08-14T00:45:05;4.28;;;2.47;;
41677;SDS011;27364;49.026;8.712;2022-08-14T00:47:32;4.55;;;2.38;;
41677;SDS011;27364;49.026;8.712;2022-08-14T00:49:59;4.85;;;2.53;;
41677;SDS011;27364;49.026;8.712;2022-08-14T00:52:26;5.87;;;2.73;;
41677;SDS011;27364;49.026;8.712;2022-08-14T00:54:52;3.50;;;2.35;;
41677;SDS011;27364;49.026;8.712;2022-08-14T00:57:19;3.45;;;2.38;;
41677;SDS011;27364;49.026;8.712;2022-08-14T00:59:45;3.88;;;2.40;;
41677;SDS011;27364;49.026;8.712;2022-08-14T01:02:11;4.75;;;2.60;;
41677;SDS011;27364;49.026;8.712;2022-08-14T01:07:06;3.00;;;2.20;;
41677;SDS011;27364;49.026;8.712;2022-08-14T01:09:32;4.72;;;2.50;;
41677;SDS011;27364;49.026;8.712;2022-08-14T01:12:02;3.80;;;2.45;;
41677;SDS011;27364;49.026;8.712;2022-08-14T01:14:29;3.55;;;2.60;;
41677;SDS011;27364;49.026;8.712;2022-08-14T01:16:55;3.58;;;2.60;;
41677;SDS011;27364;49.026;8.712;2022-08-14T01:19:22;3.58;;;2.45;;
41677;SDS011;27364;49.026;8.712;2022-08-14T01:22:08;4.57;;;2.45;;
41677;SDS011;27364;49.026;8.712;2022-08-14T01:24:34;2.92;;;2.33;;
41677;SDS011;27364;49.026;8.712;2022-08-14T01:27:01;4.15;;;2.50;;
41677;SDS011;27364;49.026;8.712;2022-08-14T01:29:29;4.80;;;2.20;;
41677;SDS011;27364;49.026;8.712;2022-08-14T01:32:01;4.03;;;2.35;;
41677;SDS011;27364;49.026;8.712;2022-08-14T01:34:28;3.47;;;2.37;;
41677;SDS011;27364;49.026;8.712;2022-08-14T01:36:57;4.72;;;2.40;;
41677;SDS011;27364;49.026;8.712;2022-08-14T01:39:28;4.32;;;2.58;;
41677;SDS011;27364;49.026;8.712;2022-08-14T01:41:54;3.63;;;2.35;;
41677;SDS011;27364;49.026;8.712;2022-08-14T01:44:24;3.22;;;2.30;;
41677;SDS011;27364;49.026;8.712;2022-08-14T01:46:55;3.00;;;2.15;;
41677;SDS011;27364;49.026;8.712;2022-08-14T01:49:24;3.58;;;2.20;;
41677;SDS011;27364;49.026;8.712;2022-08-14T01:51:50;4.93;;;2.22;;
41677;SDS011;27364;49.026;8.712;2022-08-14T01:54:21;3.70;;;2.38;;
41677;SDS011;27364;49.026;8.712;2022-08-14T01:56:54;3.38;;;2.63;;
41677;SDS011;27364;49.026;8.712;2022-08-14T01:59:23;5.00;;;2.80;;
41677;SDS011;27364;49.026;8.712;2022-08-14T02:01:53;3.35;;;2.63;;
41677;SDS011;27364;49.026;8.712;2022-08-14T02:04:22;3.53;;;2.80;;
41677;SDS011;27364;49.026;8.712;2022-08-14T02:06:49;4.03;;;2.70;;
41677;SDS011;27364;49.026;8.712;2022-08-14T02:09:16;3.53;;;2.47;;
41677;SDS011;27364;49.026;8.712;2022-08-14T02:11:42;4.55;;;2.70;;
41677;SDS011;27364;49.026;8.712;2022-08-14T02:14:09;5.97;;;2.67;;
41677;SDS011;27364;49.026;8.712;2022-08-14T02:16:38;4.35;;;2.80;;
41677;SDS011;27364;49.026;8.712;2022-08-14T02:19:07;3.33;;;2.67;;
41677;SDS011;27364;49.026;8.712;2022-08-14T02:21:35;3.60;;;2.70;;
41677;SDS011;27364;49.026;8.712;2022-08-14T02:24:02;4.57;;;2.97;;
41677;SDS011;27364;49.026;8.712;2022-08-14T02:26:30;4.22;;;2.80;;
41677;SDS011;27364;49.026;8.712;2022-08-14T02:29:01;5.10;;;2.42;;
41677;SDS011;27364;49.026;8.712;2022-08-14T02:31:36;4.35;;;2.95;;
41677;SDS011;27364;49.026;8.712;2022-08-14T02:34:08;4.63;;;2.58;;
41677;SDS011;27364;49.026;8.712;2022-08-14T02:36:46;4.47;;;3.17;;
41677;SDS011;27364;49.026;8.712;2022-08-14T02:39:15;3.78;;;3.00;;
41677;SDS011;27364;49.026;8.712;2022-08-14T02:41:41;5.90;;;3.00;;
41677;SDS011;27364;49.026;8.712;2022-08-14T02:44:08;4.15;;;3.00;;
41677;SDS011;27364;49.026;8.712;2022-08-14T02:46:35;6.10;;;2.97;;
41677;SDS011;27364;49.026;8.712;2022-08-14T02:49:06;9.38;;;2.78;;
41677;SDS011;27364;49.026;8.712;2022-08-14T02:51:34;3.97;;;2.53;;
41677;SDS011;27364;49.026;8.712;2022-08-14T02:54:01;4.20;;;2.63;;
41677;SDS011;27364;49.026;8.712;2022-08-14T02:56:27;3.40;;;2.53;;
41677;SDS011;27364;49.026;8.712;2022-08-14T02:58:54;4.45;;;2.35;;
41677;SDS011;27364;49.026;8.712;2022-08-14T03:01:21;4.72;;;2.83;;
41677;SDS011;27364;49.026;8.712;2022-08-14T03:03:48;4.70;;;2.95;;
41677;SDS011;27364;49.026;8.712;2022-08-14T03:06:15;4.85;;;3.05;;
41677;SDS011;27364;49.026;8.712;2022-08-14T03:08:42;5.20;;;2.92;;
41677;SDS011;27364;49.026;8.712;2022-08-14T03:11:09;4.10;;;2.70;;
41677;SDS011;27364;49.026;8.712;2022-08-14T03:13:37;4.00;;;3.03;;
41677;SDS011;27364;49.026;8.712;2022-08-14T03:16:06;6.05;;;2.67;;
41677;SDS011;27364;49.026;8.712;2022-08-14T03:18:36;4.70;;;2.85;;
41677;SDS011;27364;49.026;8.712;2022-08-14T03:21:06;5.88;;;2.75;;
41677;SDS011;27364;49.026;8.712;2022-08-14T03:23:37;5.45;;;2.80;;
41677;SDS011;27364;49.026;8.712;2022-08-14T03:26:03;3.78;;;3.08;;
41677;SDS011;27364;49.026;8.712;2022-08-14T03:28:31;5.80;;;2.85;;
41677;SDS011;27364;49.026;8.712;2022-08-14T03:30:57;5.28;;;3.05;;
41677;SDS011;27364;49.026;8.712;2022-08-14T03:33:23;3.60;;;2.95;;
41677;SDS011;27364;49.026;8.712;2022-08-14T03:35:49;4.72;;;2.75;;
41677;SDS011;27364;49.026;8.712;2022-08-14T03:38:15;4.45;;;3.20;;
41677;SDS011;27364;49.026;8.712;2022-08-14T03:40:42;4.10;;;3.05;;
41677;SDS011;27364;49.026;8.712;2022-08-14T03:43:09;4.72;;;3.03;;
41677;SDS011;27364;49.026;8.712;2022-08-14T03:45:35;3.90;;;3.00;;
41677;SDS011;27364;49.026;8.712;2022-08-14T03:48:13;5.03;;;2.93;;
41677;SDS011;27364;49.026;8.712;2022-08-14T03:50:44;4.45;;;3.03;;
41677;SDS011;27364;49.026;8.712;2022-08-14T03:53:10;5.38;;;2.92;;
41677;SDS011;27364;49.026;8.712;2022-08-14T03:55:37;3.95;;;3.00;;
41677;SDS011;27364;49.026;8.712;2022-08-14T03:58:02;4.22;;;3.10;;
41677;SDS011;27364;49.026;8.712;2022-08-14T04:00:30;3.88;;;2.97;;
41677;SDS011;27364;49.026;8.712;2022-08-14T04:02:55;4.65;;;3.30;;
41677;SDS011;27364;49.026;8.712;2022-08-14T04:05:21;5.15;;;3.10;;
41677;SDS011;27364;49.026;8.712;2022-08-14T04:07:47;3.90;;;3.20;;
41677;SDS011;27364;49.026;8.712;2022-08-14T04:10:12;3.80;;;2.92;;
41677;SDS011;27364;49.026;8.712;2022-08-14T04:12:38;3.90;;;3.30;;
41677;SDS011;27364;49.026;8.712;2022-08-14T04:15:04;3.97;;;3.08;;
41677;SDS011;27364;49.026;8.712;2022-08-14T04:17:30;4.95;;;3.47;;
41677;SDS011;27364;49.026;8.712;2022-08-14T04:19:57;4.40;;;2.97;;
41677;SDS011;27364;49.026;8.712;2022-08-14T04:22:29;3.67;;;3.05;;
41677;SDS011;27364;49.026;8.712;2022-08-14T04:24:56;5.00;;;3.50;;
41677;SDS011;27364;49.026;8.712;2022-08-14T04:27:23;4.35;;;3.20;;
41677;SDS011;27364;49.026;8.712;2022-08-14T04:29:49;5.20;;;3.50;;
41677;SDS011;27364;49.026;8.712;2022-08-14T04:32:14;4.88;;;3.30;;
41677;SDS011;27364;49.026;8.712;2022-08-14T04:34:40;4.60;;;3.20;;
41677;SDS011;27364;49.026;8.712;2022-08-14T04:37:06;6.13;;;3.38;;
41677;SDS011;27364;49.026;8.712;2022-08-14T04:39:52;4.22;;;3.42;;
41677;SDS011;27364;49.026;8.712;2022-08-14T04:42:39;4.60;;;3.40;;
41677;SDS011;27364;49.026;8.712;2022-08-14T04:45:24;4.82;;;3.50;;
41677;SDS011;27364;49.026;8.712;2022-08-14T04:47:54;4.13;;;3.40;;
41677;SDS011;27364;49.026;8.712;2022-08-14T04:50:42;5.35;;;3.55;;
41677;SDS011;27364;49.026;8.712;2022-08-14T04:53:14;6.75;;;3.53;;
41677;SDS011;27364;49.026;8.712;2022-08-14T04:55:42;4.82;;;3.50;;
41677;SDS011;27364;49.026;8.712;2022-08-14T04:58:12;7.97;;;3.75;;
41677;SDS011;27364;49.026;8.712;2022-08-14T05:00:48;4.22;;;3.35;;
41677;SDS011;27364;49.026;8.712;2022-08-14T05:03:23;6.90;;;4.00;;
41677;SDS011;27364;49.026;8.712;2022-08-14T05:05:52;4.38;;;3.60;;
41677;SDS011;27364;49.026;8.712;2022-08-14T05:08:19;4.80;;;3.40;;
41677;SDS011;27364;49.026;8.712;2022-08-14T05:10:50;4.82;;;3.40;;
41677;SDS011;27364;49.026;8.712;2022-08-14T05:13:19;7.82;;;3.50;;
41677;SDS011;27364;49.026;8.712;2022-08-14T05:15:49;5.07;;;3.28;;
41677;SDS011;27364;49.026;8.712;2022-08-14T05:18:17;4.50;;;3.47;;
41677;SDS011;27364;49.026;8.712;2022-08-14T05:20:45;8.30;;;3.78;;
41677;SDS011;27364;49.026;8.712;2022-08-14T05:23:13;4.25;;;3.38;;
41677;SDS011;27364;49.026;8.712;2022-08-14T05:25:40;4.18;;;3.45;;
41677;SDS011;27364;49.026;8.712;2022-08-14T05:30:33;3.97;;;3.37;;
41677;SDS011;27364;49.026;8.712;2022-08-14T05:32:59;4.82;;;3.20;;
41677;SDS011;27364;49.026;8.712;2022-08-14T05:35:25;5.38;;;3.53;;
41677;SDS011;27364;49.026;8.712;2022-08-14T05:37:51;6.13;;;3.42;;
41677;SDS011;27364;49.026;8.712;2022-08-14T05:40:17;5.38;;;3.45;;
41677;SDS011;27364;49.026;8.712;2022-08-14T05:42:42;6.90;;;3.47;;
41677;SDS011;27364;49.026;8.712;2022-08-14T05:45:08;4.65;;;3.45;;
41677;SDS011;27364;49.026;8.712;2022-08-14T05:47:37;5.82;;;3.30;;
41677;SDS011;27364;49.026;8.712;2022-08-14T05:50:04;4.22;;;3.33;;
41677;SDS011;27364;49.026;8.712;2022-08-14T05:52:31;3.90;;;3.35;;
41677;SDS011;27364;49.026;8.712;2022-08-14T05:54:57;4.78;;;3.55;;
41677;SDS011;27364;49.026;8.712;2022-08-14T05:57:22;4.97;;;3.28;;
41677;SDS011;27364;49.026;8.712;2022-08-14T05:59:48;5.20;;;2.95;;
41677;SDS011;27364;49.026;8.712;2022-08-14T06:02:14;4.72;;;3.42;;
41677;SDS011;27364;49.026;8.712;2022-08-14T06:04:39;4.57;;;3.25;;
41677;SDS011;27364;49.026;8.712;2022-08-14T06:07:11;5.50;;;3.40;;
41677;SDS011;27364;49.026;8.712;2022-08-14T06:09:40;5.15;;;3.53;;
41677;SDS011;27364;49.026;8.712;2022-08-14T06:12:09;4.65;;;3.35;;
41677;SDS011;27364;49.026;8.712;2022-08-14T06:14:36;4.55;;;3.28;;
41677;SDS011;27364;49.026;8.712;2022-08-14T06:17:02;3.60;;;3.20;;
41677;SDS011;27364;49.026;8.712;2022-08-14T06:19:28;3.72;;;3.00;;
41677;SDS011;27364;49.026;8.712;2022-08-14T06:21:54;5.47;;;2.97;;
41677;SDS011;27364;49.026;8.712;2022-08-14T06:24:19;6.53;;;2.83;;
41677;SDS011;27364;49.026;8.712;2022-08-14T06:26:45;4.60;;;2.80;;
41677;SDS011;27364;49.026;8.712;2022-08-14T06:29:11;4.55;;;2.88;;
41677;SDS011;27364;49.026;8.712;2022-08-14T06:31:36;5.32;;;2.95;;
41677;SDS011;27364;49.026;8.712;2022-08-14T06:34:02;3.30;;;2.40;;
41677;SDS011;27364;49.026;8.712;2022-08-14T06:36:28;4.20;;;3.17;;
41677;SDS011;27364;49.026;8.712;2022-08-14T06:38:54;4.55;;;2.80;;
41677;SDS011;27364;49.026;8.712;2022-08-14T06:41:19;3.67;;;2.78;;
41677;SDS011;27364;49.026;8.712;2022-08-14T06:43:45;3.95;;;3.00;;
41677;SDS011;27364;49.026;8.712;2022-08-14T06:46:10;5.28;;;2.70;;
41677;SDS011;27364;49.026;8.712;2022-08-14T06:48:36;4.30;;;3.05;;
41677;SDS011;27364;49.026;8.712;2022-08-14T06:51:01;5.60;;;2.88;;
41677;SDS011;27364;49.026;8.712;2022-08-14T06:53:27;4.88;;;2.80;;
41677;SDS011;27364;49.026;8.712;2022-08-14T06:55:53;3.95;;;2.70;;
41677;SDS011;27364;49.026;8.712;2022-08-14T06:58:19;4.95;;;3.25;;
41677;SDS011;27364;49.026;8.712;2022-08-14T07:00:45;3.72;;;2.70;;
41677;SDS011;27364;49.026;8.712;2022-08-14T07:03:30;5.28;;;3.15;;
41677;SDS011;27364;49.026;8.712;2022-08-14T07:06:15;4.57;;;2.92;;
41677;SDS011;27364;49.026;8.712;2022-08-14T07:08:41;6.40;;;3.28;;
41677;SDS011;27364;49.026;8.712;2022-08-14T07:11:07;4.60;;;2.70;;
41677;SDS011;27364;49.026;8.712;2022-08-14T07:13:33;4.22;;;2.58;;
41677;SDS011;27364;49.026;8.712;2022-08-14T07:15:59;5.00;;;2.72;;
41677;SDS011;27364;49.026;8.712;2022-08-14T07:18:25;3.95;;;2.50;;
41677;SDS011;27364;49.026;8.712;2022-08-14T07:20:53;3.92;;;2.53;;
41677;SDS011;27364;49.026;8.712;2022-08-14T07:23:19;3.53;;;2.77;;
41677;SDS011;27364;49.026;8.712;2022-08-14T07:25:48;5.47;;;2.67;;
41677;SDS011;27364;49.026;8.712;2022-08-14T07:28:20;3.75;;;2.75;;
41677;SDS011;27364;49.026;8.712;2022-08-14T07:30:48;3.53;;;2.55;;
41677;SDS011;27364;49.026;8.712;2022-08-14T07:33:14;2.80;;;2.22;;
41677;SDS011;27364;49.026;8.712;2022-08-14T07:35:40;6.50;;;2.20;;
41677;SDS011;27364;49.026;8.712;2022-08-14T07:38:06;3.70;;;2.40;;
41677;SDS011;27364;49.026;8.712;2022-08-14T07:40:32;4.75;;;2.45;;
41677;SDS011;27364;49.026;8.712;2022-08-14T07:42:58;3.90;;;2.47;;
41677;SDS011;27364;49.026;8.712;2022-08-14T07:45:25;3.47;;;2.30;;
41677;SDS011;27364;49.026;8.712;2022-08-14T07:47:51;3.80;;;2.30;;
41677;SDS011;27364;49.026;8.712;2022-08-14T07:50:20;2.97;;;2.08;;
41677;SDS011;27364;49.026;8.712;2022-08-14T07:52:46;4.30;;;1.92;;
41677;SDS011;27364;49.026;8.712;2022-08-14T07:55:13;2.90;;;2.03;;
41677;SDS011;27364;49.026;8.712;2022-08-14T07:57:40;3.17;;;2.10;;
41677;SDS011;27364;49.026;8.712;2022-08-14T08:00:08;3.80;;;2.00;;
41677;SDS011;27364;49.026;8.712;2022-08-14T08:02:42;3.60;;;2.00;;
41677;SDS011;27364;49.026;8.712;2022-08-14T08:05:09;3.13;;;2.15;;
41677;SDS011;27364;49.026;8.712;2022-08-14T08:07:37;3.28;;;2.08;;
41677;SDS011;27364;49.026;8.712;2022-08-14T08:10:10;2.92;;;1.98;;
41677;SDS011;27364;49.026;8.712;2022-08-14T08:12:57;2.97;;;1.85;;
41677;SDS011;27364;49.026;8.712;2022-08-14T08:15:38;3.65;;;2.08;;
41677;SDS011;27364;49.026;8.712;2022-08-14T08:18:06;2.75;;;1.88;;
41677;SDS011;27364;49.026;8.712;2022-08-14T08:20:40;2.72;;;1.90;;
41677;SDS011;27364;49.026;8.712;2022-08-14T08:23:10;3.15;;;1.95;;
41677;SDS011;27364;49.026;8.712;2022-08-14T08:25:37;3.60;;;1.90;;
41677;SDS011;27364;49.026;8.712;2022-08-14T08:28:09;2.70;;;1.80;;
41677;SDS011;27364;49.026;8.712;2022-08-14T08:30:38;4.15;;;1.80;;
41677;SDS011;27364;49.026;8.712;2022-08-14T08:33:05;3.40;;;2.08;;
41677;SDS011;27364;49.026;8.712;2022-08-14T08:35:32;2.53;;;1.70;;
41677;SDS011;27364;49.026;8.712;2022-08-14T08:38:04;2.72;;;1.80;;
41677;SDS011;27364;49.026;8.712;2022-08-14T08:40:46;5.55;;;2.00;;
41677;SDS011;27364;49.026;8.712;2022-08-14T08:43:20;2.75;;;1.83;;
41677;SDS011;27364;49.026;8.712;2022-08-14T08:45:57;3.00;;;1.70;;
41677;SDS011;27364;49.026;8.712;2022-08-14T08:50:58;3.15;;;2.00;;
41677;SDS011;27364;49.026;8.712;2022-08-14T08:53:32;3.83;;;2.00;;
41677;SDS011;27364;49.026;8.712;2022-08-14T08:55:59;2.90;;;2.10;;
41677;SDS011;27364;49.026;8.712;2022-08-14T08:58:26;2.95;;;2.00;;
41677;SDS011;27364;49.026;8.712;2022-08-14T09:00:52;3.30;;;1.80;;
41677;SDS011;27364;49.026;8.712;2022-08-14T09:03:20;2.40;;;1.60;;
41677;SDS011;27364;49.026;8.712;2022-08-14T09:05:54;3.13;;;1.50;;
41677;SDS011;27364;49.026;8.712;2022-08-14T09:08:24;3.13;;;1.50;;
41677;SDS011;27364;49.026;8.712;2022-08-14T09:10:52;2.28;;;1.50;;
41677;SDS011;27364;49.026;8.712;2022-08-14T09:13:19;2.85;;;1.80;;
41677;SDS011;27364;49.026;8.712;2022-08-14T09:15:47;3.00;;;1.60;;
41677;SDS011;27364;49.026;8.712;2022-08-14T09:18:14;2.70;;;1.65;;
41677;SDS011;27364;49.026;8.712;2022-08-14T09:20:42;3.28;;;1.65;;
41677;SDS011;27364;49.026;8.712;2022-08-14T09:23:10;3.78;;;1.73;;
41677;SDS011;27364;49.026;8.712;2022-08-14T09:25:38;2.40;;;1.55;;
41677;SDS011;27364;49.026;8.712;2022-08-14T09:28:06;3.47;;;1.60;;
41677;SDS011;27364;49.026;8.712;2022-08-14T09:30:33;4.50;;;1.70;;
41677;SDS011;27364;49.026;8.712;2022-08-14T09:46:16;2.90;;;1.75;;
41677;SDS011;27364;49.026;8.712;2022-08-14T09:48:41;2.42;;;1.60;;
41677;SDS011;27364;49.026;8.712;2022-08-14T09:51:07;2.72;;;1.90;;
41677;SDS011;27364;49.026;8.712;2022-08-14T09:53:58;3.00;;;2.08;;
41677;SDS011;27364;49.026;8.712;2022-08-14T09:56:26;5.00;;;2.08;;
41677;SDS011;27364;49.026;8.712;2022-08-14T09:58:51;5.82;;;1.73;;
41677;SDS011;27364;49.026;8.712;2022-08-14T10:01:17;3.28;;;1.70;;
41677;SDS011;27364;49.026;8.712;2022-08-14T10:06:19;4.13;;;1.77;;
41677;SDS011;27364;49.026;8.712;2022-08-14T10:08:53;2.78;;;1.80;;
41677;SDS011;27364;49.026;8.712;2022-08-14T10:13:52;3.83;;;1.90;;
41677;SDS011;27364;49.026;8.712;2022-08-14T10:18:48;3.85;;;1.92;;
41677;SDS011;27364;49.026;8.712;2022-08-14T10:21:25;6.25;;;1.77;;
41677;SDS011;27364;49.026;8.712;2022-08-14T10:23:50;3.40;;;1.88;;
41677;SDS011;27364;49.026;8.712;2022-08-14T10:26:17;2.70;;;1.90;;
41677;SDS011;27364;49.026;8.712;2022-08-14T10:33:55;2.42;;;1.77;;
41677;SDS011;27364;49.026;8.712;2022-08-14T10:36:26;2.85;;;1.85;;
41677;SDS011;27364;49.026;8.712;2022-08-14T10:39:04;3.13;;;1.95;;
41677;SDS011;27364;49.026;8.712;2022-08-14T10:41:33;3.88;;;1.90;;
41677;SDS011;27364;49.026;8.712;2022-08-14T10:44:05;4.65;;;2.13;;
41677;SDS011;27364;49.026;8.712;2022-08-14T10:46:45;2.35;;;1.70;;
41677;SDS011;27364;49.026;8.712;2022-08-14T10:49:18;4.72;;;2.03;;
41677;SDS011;27364;49.026;8.712;2022-08-14T10:51:56;3.20;;;2.00;;
41677;SDS011;27364;49.026;8.712;2022-08-14T10:54:34;2.60;;;1.83;;
41677;SDS011;27364;49.026;8.712;2022-08-14T10:57:13;2.83;;;1.80;;
41677;SDS011;27364;49.026;8.712;2022-08-14T10:59:48;2.78;;;1.90;;
41677;SDS011;27364;49.026;8.712;2022-08-14T11:02:27;2.80;;;2.05;;
41677;SDS011;27364;49.026;8.712;2022-08-14T11:05:09;3.38;;;2.08;;
41677;SDS011;27364;49.026;8.712;2022-08-14T11:10:24;2.78;;;1.90;;
41677;SDS011;27364;49.026;8.712;2022-08-14T11:13:05;5.18;;;1.90;;
41677;SDS011;27364;49.026;8.712;2022-08-14T11:15:32;2.92;;;2.13;;
41677;SDS011;27364;49.026;8.712;2022-08-14T11:17:58;6.75;;;1.85;;
41677;SDS011;27364;49.026;8.712;2022-08-14T11:20:25;3.97;;;1.80;;
41677;SDS011;27364;49.026;8.712;2022-08-14T11:22:53;3.38;;;2.05;;
41677;SDS011;27364;49.026;8.712;2022-08-14T11:25:22;3.30;;;1.80;;
41677;SDS011;27364;49.026;8.712;2022-08-14T11:27:50;2.97;;;2.08;;
41677;SDS011;27364;49.026;8.712;2022-08-14T11:30:19;3.15;;;2.00;;
41677;SDS011;27364;49.026;8.712;2022-08-14T11:32:47;4.03;;;2.15;;
41677;SDS011;27364;49.026;8.712;2022-08-14T11:35:15;3.40;;;1.77;;
41677;SDS011;27364;49.026;8.712;2022-08-14T11:37:52;5.20;;;2.15;;
41677;SDS011;27364;49.026;8.712;2022-08-14T11:40:29;2.60;;;2.00;;
41677;SDS011;27364;49.026;8.712;2022-08-14T11:42:59;3.33;;;2.28;;
41677;SDS011;27364;49.026;8.712;2022-08-14T11:45:31;3.55;;;2.10;;
41677;SDS011;27364;49.026;8.712;2022-08-14T11:48:00;4.20;;;2.00;;
41677;SDS011;27364;49.026;8.712;2022-08-14T11:50:28;5.18;;;2.40;;
41677;SDS011;27364;49.026;8.712;2022-08-14T11:52:56;2.80;;;2.00;;
41677;SDS011;27364;49.026;8.712;2022-08-14T11:55:24;2.67;;;2.00;;
41677;SDS011;27364;49.026;8.712;2022-08-14T11:58:00;5.63;;;2.15;;
41677;SDS011;27364;49.026;8.712;2022-08-14T12:00:29;4.45;;;1.90;;
41677;SDS011;27364;49.026;8.712;2022-08-14T12:02:56;3.70;;;1.98;;
41677;SDS011;27364;49.026;8.712;2022-08-14T12:05:41;2.72;;;1.85;;
41677;SDS011;27364;49.026;8.712;2022-08-14T12:08:07;2.60;;;1.90;;
41677;SDS011;27364;49.026;8.712;2022-08-14T12:10:37;3.22;;;2.00;;
41677;SDS011;27364;49.026;8.712;2022-08-14T12:13:13;3.45;;;2.00;;
41677;SDS011;27364;49.026;8.712;2022-08-14T12:15:41;3.08;;;1.95;;
41677;SDS011;27364;49.026;8.712;2022-08-14T12:18:09;3.17;;;2.38;;
41677;SDS011;27364;49.026;8.712;2022-08-14T12:20:36;3.03;;;1.73;;
41677;SDS011;27364;49.026;8.712;2022-08-14T12:23:06;3.10;;;1.80;;
41677;SDS011;27364;49.026;8.712;2022-08-14T12:25:43;2.88;;;1.70;;
41677;SDS011;27364;49.026;8.712;2022-08-14T12:28:09;3.28;;;1.98;;
41677;SDS011;27364;49.026;8.712;2022-08-14T12:30:37;3.85;;;1.75;;
41677;SDS011;27364;49.026;8.712;2022-08-14T12:35:54;2.72;;;2.00;;
41677;SDS011;27364;49.026;8.712;2022-08-14T12:38:41;2.40;;;1.60;;
41677;SDS011;27364;49.026;8.712;2022-08-14T12:43:44;2.20;;;1.67;;
41677;SDS011;27364;49.026;8.712;2022-08-14T12:46:30;3.00;;;1.92;;
41677;SDS011;27364;49.026;8.712;2022-08-14T12:48:59;8.63;;;1.80;;
41677;SDS011;27364;49.026;8.712;2022-08-14T12:51:28;2.63;;;1.90;;
41677;SDS011;27364;49.026;8.712;2022-08-14T12:53:55;3.28;;;2.00;;
41677;SDS011;27364;49.026;8.712;2022-08-14T12:56:21;4.05;;;1.80;;
41677;SDS011;27364;49.026;8.712;2022-08-14T12:58:50;3.85;;;1.70;;
41677;SDS011;27364;49.026;8.712;2022-08-14T13:01:24;3.28;;;1.90;;
41677;SDS011;27364;49.026;8.712;2022-08-14T13:04:04;2.88;;;1.83;;
41677;SDS011;27364;49.026;8.712;2022-08-14T13:06:34;2.50;;;1.70;;
41677;SDS011;27364;49.026;8.712;2022-08-14T13:09:00;2.75;;;1.98;;
41677;SDS011;27364;49.026;8.712;2022-08-14T13:11:40;3.88;;;2.30;;
41677;SDS011;27364;49.026;8.712;2022-08-14T13:14:08;3.45;;;1.70;;
41677;SDS011;27364;49.026;8.712;2022-08-14T13:16:38;4.05;;;1.60;;
41677;SDS011;27364;49.026;8.712;2022-08-14T13:19:06;3.35;;;1.80;;
41677;SDS011;27364;49.026;8.712;2022-08-14T13:21:40;2.70;;;1.88;;
41677;SDS011;27364;49.026;8.712;2022-08-14T13:24:13;2.20;;;1.50;;
41677;SDS011;27364;49.026;8.712;2022-08-14T13:26:43;2.30;;;1.70;;
41677;SDS011;27364;49.026;8.712;2022-08-14T13:29:10;3.95;;;1.70;;
41677;SDS011;27364;49.026;8.712;2022-08-14T13:34:04;2.30;;;1.70;;
41677;SDS011;27364;49.026;8.712;2022-08-14T13:36:30;3.53;;;2.05;;
41677;SDS011;27364;49.026;8.712;2022-08-14T13:38:56;2.70;;;1.80;;
41677;SDS011;27364;49.026;8.712;2022-08-14T13:41:25;3.22;;;1.63;;
41677;SDS011;27364;49.026;8.712;2022-08-14T13:43:51;2.50;;;1.58;;
41677;SDS011;27364;49.026;8.712;2022-08-14T13:46:17;4.13;;;1.70;;
41677;SDS011;27364;49.026;8.712;2022-08-14T13:48:44;2.58;;;1.60;;
41677;SDS011;27364;49.026;8.712;2022-08-14T13:51:10;3.07;;;1.67;;
41677;SDS011;27364;49.026;8.712;2022-08-14T13:53:48;2.60;;;1.70;;
41677;SDS011;27364;49.026;8.712;2022-08-14T13:56:14;3.05;;;1.55;;
41677;SDS011;27364;49.026;8.712;2022-08-14T13:58:41;3.35;;;1.85;;
41677;SDS011;27364;49.026;8.712;2022-08-14T14:01:11;2.30;;;1.70;;
41677;SDS011;27364;49.026;8.712;2022-08-14T14:03:42;2.92;;;1.75;;
41677;SDS011;27364;49.026;8.712;2022-08-14T14:06:10;2.40;;;1.70;;
41677;SDS011;27364;49.026;8.712;2022-08-14T14:08:38;2.30;;;1.50;;
41677;SDS011;27364;49.026;8.712;2022-08-14T14:11:11;2.72;;;1.85;;
41677;SDS011;27364;49.026;8.712;2022-08-14T14:13:37;2.92;;;1.98;;
41677;SDS011;27364;49.026;8.712;2022-08-14T14:16:03;2.60;;;1.80;;
41677;SDS011;27364;49.026;8.712;2022-08-14T14:18:33;2.35;;;1.60;;
41677;SDS011;27364;49.026;8.712;2022-08-14T14:21:00;2.97;;;2.08;;
41677;SDS011;27364;49.026;8.712;2022-08-14T14:23:27;2.33;;;1.50;;
41677;SDS011;27364;49.026;8.712;2022-08-14T14:25:53;3.00;;;1.50;;
41677;SDS011;27364;49.026;8.712;2022-08-14T14:28:19;2.43;;;1.77;;
41677;SDS011;27364;49.026;8.712;2022-08-14T14:30:48;3.17;;;1.80;;
41677;SDS011;27364;49.026;8.712;2022-08-14T14:33:16;6.60;;;1.80;;
41677;SDS011;27364;49.026;8.712;2022-08-14T14:35:44;2.53;;;1.80;;
41677;SDS011;27364;49.026;8.712;2022-08-14T14:40:40;2.78;;;1.90;;
41677;SDS011;27364;49.026;8.712;2022-08-14T14:43:10;3.13;;;2.00;;
41677;SDS011;27364;49.026;8.712;2022-08-14T14:45:38;2.22;;;1.50;;
41677;SDS011;27364;49.026;8.712;2022-08-14T14:48:05;2.70;;;1.67;;
41677;SDS011;27364;49.026;8.712;2022-08-14T14:50:32;2.85;;;1.77;;
41677;SDS011;27364;49.026;8.712;2022-08-14T14:52:58;2.40;;;1.70;;
41677;SDS011;27364;49.026;8.712;2022-08-14T14:55:23;2.47;;;1.65;;
41677;SDS011;27364;49.026;8.712;2022-08-14T14:57:51;2.80;;;1.65;;
41677;SDS011;27364;49.026;8.712;2022-08-14T15:00:17;4.32;;;1.73;;
41677;SDS011;27364;49.026;8.712;2022-08-14T15:05:14;2.85;;;1.70;;
41677;SDS011;27364;49.026;8.712;2022-08-14T15:07:41;3.00;;;1.90;;
41677;SDS011;27364;49.026;8.712;2022-08-14T15:10:08;3.17;;;1.70;;
41677;SDS011;27364;49.026;8.712;2022-08-14T15:12:36;2.53;;;1.80;;
41677;SDS011;27364;49.026;8.712;2022-08-14T15:15:02;2.50;;;1.67;;
41677;SDS011;27364;49.026;8.712;2022-08-14T15:17:29;4.10;;;1.95;;
41677;SDS011;27364;49.026;8.712;2022-08-14T15:20:03;2.40;;;1.60;;
41677;SDS011;27364;49.026;8.712;2022-08-14T15:22:32;3.33;;;1.50;;
41677;SDS011;27364;49.026;8.712;2022-08-14T15:24:59;2.67;;;1.75;;
41677;SDS011;27364;49.026;8.712;2022-08-14T15:27:24;5.40;;;2.00;;
41677;SDS011;27364;49.026;8.712;2022-08-14T15:29:50;2.42;;;1.60;;
41677;SDS011;27364;49.026;8.712;2022-08-14T15:32:16;2.60;;;1.67;;
41677;SDS011;27364;49.026;8.712;2022-08-14T15:34:41;2.80;;;1.73;;
41677;SDS011;27364;49.026;8.712;2022-08-14T15:37:09;2.92;;;1.83;;
41677;SDS011;27364;49.026;8.712;2022-08-14T15:39:35;3.05;;;1.80;;
41677;SDS011;27364;49.026;8.712;2022-08-14T15:42:02;2.27;;;1.53;;
41677;SDS011;27364;49.026;8.712;2022-08-14T15:44:30;2.58;;;1.80;;
41677;SDS011;27364;49.026;8.712;2022-08-14T15:46:56;2.70;;;1.70;;